Aurora, NY

12:50 AM EDT on October 01, 2014 (GMT -0400)
Sunnyside Dairy | Change Station
CLOSE
Current Station
Personal Weather Station
Location: Scipio Center, NY
Elevation: 1168 ft
Nearby Weather Stations

Elev 1168 ft 42.73 °N, 76.57 °W | Updated 1 minute ago

Overcast
Overcast
60.3 °F
Feels Like 60.3 °F
N
0.0
Wind Variable Wind from WNW
Gusts 3.0 mph

Today
High -- | Low -- °F
--% Chance of Precip.
Yesterday
High -- | Low -- °F
Precip. -- in
7:03 AM 6:47 PM
Waxing Crescent, 43% visible
Pressure 30.00 in
Visibility 1.8 miles
Clouds Clear
Dew Point 60 °F
Humidity 98%
Rainfall 0.08 in
Snow Depth Not available.
UV 0 out of 12
Pollen 2.30 out of 12
PM2.5 Moderate
Flu Activity Not available.
SPECI KITH 010445Z AUTO 33004KT 1 3/4SM BR CLR 14/14 A3000 RMK AO2 VIS 1/2V5

More Conditions Fewer Conditions

Pressure 30.00 in
Visibility 1.8 miles
Clouds Clear
Dew Point 60 °F
Humidity 98%
Rainfall 0.08 in
Snow Depth Not available.
UV 0 out of 12
Pollen 2.30 out of 12
PM2.5 Moderate
Flu Activity Not available.
SPECI KITH 010445Z AUTO 33004KT 1 3/4SM BR CLR 14/14 A3000 RMK AO2 VIS 1/2V5

More Conditions Fewer Conditions

10-Day Weather Forecast

Almanac

Astronomy

Oct. 01, 2014 Rise Set
Actual Time 7:03 AM EDT 6:47 PM EDT
Civil Twilight 6:35 AM EDT 7:16 PM EDT
Nautical Twilight 6:02 AM EDT 7:48 PM EDT
Astronomical Twilight 5:29 AM EDT 8:21 PM EDT
Moon 2:08 PM EDT No Moon Set
Length of Visible Light 12h 40m
Length of Day
11h 44m
Tomorrow will be 2m 52s shorter.
Waxing Crescent, 43% of the Moon is Illuminated
Today
Waxing Crescent
Oct 1
First Quarter
Oct 8
Full
Oct 15
Last Quarter
Oct 23
New

Today's Extremes

State Highs State Lows

Community

WunderPhotos

Upload Photos

1,757,847 photos uploaded!

Nearby

Air Quality

  Air Quality AQ Index Pollutant
Yesterday Good
OZONE
Yesterday Good
PM2.5
Current Moderate
PM2.5
Tuesday Moderate
PM2.5
Tuesday Good
OZONE
Wednesday Good
PM2.5

Snow Depth

Station Depth Elevation
No new snow has been reported.

Earthquake Activity

City Distance Mag. Time & Date
No recent earthquake activity has been reported nearby.
Minimum magnitude displayed is 2.5.

Coastal Water Temperatures

Place Temperature
No Stations Reporting

Nearby Weather Stations